Filia Ariea — PIET — position and weather

sailwx.info

Track history (hours):
 
Tides and Currents Weather Stations Pressure Air Temp Water Temp Dewpoint Dewpoint Depression Visibility Wind Speed Wind Dir Waves Ship Positions

Filia Ariea

Last reported at 2014-Nov-15 04:29 UTC. Time now 2014-Nov-23 12:20 UTC.
Position N 50°11' W 003°38'.
Warning: this ship's position is 8 days out of date.

Length 90 m; draft 4.4 m.

Type: Ship. MMSI: 244662000.

Date/timePositionNaut miles runAvg speedWind from/ knotsBaromVisibWave heightAir tempDewpointWater temp
2014-Nov-15 04:29N 50°11' W 003°38'9 9.4
2014-Nov-15 03:33N 50°12' W 003°25'9 9.0
2014-Nov-15 02:33N 50°13' W 003°11'8 8.4
2014-Nov-15 01:33N 50°14' W 002°58'8 7.8
2014-Nov-15 00:33N 50°15' W 002°46'115 9.5
2014-Nov-14 12:26N 50°34' E 000°12'7 8.1
2014-Nov-14 11:33N 50°37' E 000°23'9 8.7
2014-Nov-14 10:33N 50°40' E 000°36'10 9.5
2014-Nov-14 09:33N 50°45' E 000°48'9 9.1
2014-Nov-14 08:33N 50°50' E 001°00'9 8.6
2014-Nov-14 07:33N 50°56' E 001°10'9 8.6
2014-Nov-14 06:33N 51°01' E 001°21'9 8.6
2014-Nov-14 05:33N 51°07' E 001°31'8 8.3
2014-Nov-14 04:33N 51°12' E 001°41'9 8.8
2014-Nov-14 03:34N 51°19' E 001°50'10 9.7
2014-Nov-14 02:33N 51°27' E 002°00'1210.6
2014-Nov-14 01:25N 51°35' E 002°13'3110.7
2014-Nov-13 22:32N 51°58' E 002°47'1010.0
2014-Nov-13 21:33N 52°03' E 003°00'29 9.7
2014-Nov-13 18:33N 52°18' E 003°42'10 9.8
2014-Nov-13 17:33N 52°20' E 003°58'1010.2
2014-Nov-13 16:33N 52°23' E 004°13'1111.0
2014-Nov-13 15:33N 52°29' E 004°29'5 4.4
2014-Nov-13 14:31N 52°28' E 004°36'0 0.0
2014-Nov-13 13:33N 52°28' E 004°36'0 0.0
2014-Nov-13 12:33N 52°28' E 004°36'0 0.0
2014-Nov-13 11:33N 52°28' E 004°36'0 0.0
2014-Nov-13 10:32N 52°28' E 004°36'0 0.0
2014-Nov-13 09:26N 52°28' E 004°36'0 0.0
2014-Nov-13 08:31N 52°28' E 004°36'0 0.0
2014-Nov-13 07:31N 52°28' E 004°36'0 0.0
2014-Nov-13 06:31N 52°28' E 004°36'0 0.0
2014-Nov-13 05:31N 52°28' E 004°36'0 0.0
2014-Nov-13 04:33N 52°28' E 004°36'0 0.0
2014-Nov-13 03:33N 52°28' E 004°36'0 0.0
2014-Nov-13 02:32N 52°28' E 004°36'0 0.0
2014-Nov-13 01:32N 52°28' E 004°36'0 0.0
2014-Nov-13 00:32N 52°28' E 004°36'0 0.0
2014-Nov-12 23:31N 52°28' E 004°36'0 0.0
2014-Nov-12 22:30N 52°28' E 004°36'0 0.0
2014-Nov-12 21:33N 52°28' E 004°36'0 0.0
2014-Nov-12 20:33N 52°28' E 004°36'0 0.0
2014-Nov-12 19:33N 52°28' E 004°36'0 0.0
2014-Nov-12 18:32N 52°28' E 004°36'0 0.0
2014-Nov-12 17:32N 52°28' E 004°36'0 0.0
2014-Nov-12 16:31N 52°28' E 004°36'0 0.0
2014-Nov-12 15:31N 52°28' E 004°36'1 0.7
2014-Nov-12 14:34N 52°28' E 004°35'1110.6
2014-Nov-12 13:34N 52°29' E 004°18'1110.5
2014-Nov-12 12:33N 52°28' E 004°01'1010.2
2014-Nov-12 11:33N 52°27' E 003°44'5210.3
2014-Nov-12 06:33N 52°34' E 002°20'10 9.8
2014-Nov-12 05:34N 52°35' E 002°04'8 8.3
2014-Nov-12 04:33N 52°38' E 001°51'8 7.8
2014-Nov-12 03:34N 52°45' E 001°45'9 8.8
2014-Nov-12 02:34N 52°51' E 001°35'9 9.5
2014-Nov-12 01:34N 52°57' E 001°22'  
2014-Nov-08 11:33N 53°05' E 001°16'1010.4
2014-Nov-08 10:33N 53°03' E 001°33'11 9.6
2014-Nov-08 09:27N 53°01' E 001°50'71 8.8
2014-Nov-08 01:25N 52°38' E 003°41'7 8.1
2014-Nov-08 00:33N 52°35' E 003°51'8 8.1
2014-Nov-07 23:33N 52°32' E 004°04'8 8.0
2014-Nov-07 22:33N 52°30' E 004°16'8 8.2
2014-Nov-07 21:33N 52°28' E 004°30'5 4.6
2014-Nov-07 20:33N 52°28' E 004°37'9 9.4
2014-Nov-07 19:33N 52°25' E 004°52'1 0.8
2014-Nov-07 18:33N 52°24' E 004°52'0 0.0
2014-Nov-07 17:33N 52°24' E 004°52'0 0.0
2014-Nov-07 16:32N 52°24' E 004°52'0 0.0
2014-Nov-07 15:32N 52°24' E 004°52'0 0.0
2014-Nov-07 14:31N 52°24' E 004°52'0 0.0
2014-Nov-07 13:31N 52°24' E 004°52'0 0.0
2014-Nov-07 12:34N 52°24' E 004°52'0 0.0
2014-Nov-07 11:33N 52°24' E 004°52'0 0.0
2014-Nov-07 10:33N 52°24' E 004°52'1 0.5
2014-Nov-07 09:31N 52°24' E 004°52'0 0.0
2014-Nov-07 08:31N 52°24' E 004°52'0 0.0
2014-Nov-07 07:33N 52°24' E 004°52'0 0.0
2014-Nov-07 06:33N 52°24' E 004°52'0 0.0
2014-Nov-07 05:32N 52°24' E 004°52'0 0.0
2014-Nov-07 04:32N 52°24' E 004°52'0 0.0
2014-Nov-07 03:32N 52°24' E 004°52'0 0.0
2014-Nov-07 02:31N 52°24' E 004°52'0 0.0
2014-Nov-07 01:31N 52°24' E 004°52'0 0.0
2014-Nov-07 00:33N 52°24' E 004°52'0 0.0
2014-Nov-06 23:33N 52°24' E 004°52'0 0.0
2014-Nov-06 22:32N 52°24' E 004°52'0 0.0
2014-Nov-06 21:32N 52°24' E 004°52'0 0.0
2014-Nov-06 20:32N 52°24' E 004°52'0 0.0
2014-Nov-06 19:33N 52°24' E 004°52'8 7.6
2014-Nov-06 18:33N 52°27' E 004°41'3 3.2
2014-Nov-06 17:33N 52°28' E 004°36'9 9.0
2014-Nov-06 16:33N 52°22' E 004°25'1313.2
2014-Nov-06 15:34N 52°10' E 004°15'1312.9
2014-Nov-06 14:34N 51°60' E 004°03'1110.5
2014-Nov-06 13:33N 51°54' E 004°17'8 8.1
2014-Nov-06 12:33N 51°50' E 004°28'6 6.3
2014-Nov-06 11:33N 51°48' E 004°38'0 0.0
2014-Nov-06 10:33N 51°48' E 004°38'3 3.4
2014-Nov-06 09:34N 51°49' E 004°43'4 3.7
2014-Nov-06 08:33N 51°49' E 004°49'2 1.8
2014-Nov-06 07:33N 51°49' E 004°52'0 0.0
2014-Nov-06 06:30N 51°49' E 004°52'0 0.0
2014-Nov-06 05:32N 51°49' E 004°52'0 0.0
2014-Nov-06 04:32N 51°49' E 004°52'0 0.0
2014-Nov-06 03:31N 51°49' E 004°52'0 0.0
2014-Nov-06 02:31N 51°49' E 004°52'0 0.0
2014-Nov-06 01:28N 51°49' E 004°52'0 0.0
2014-Nov-06 00:33N 51°49' E 004°52'0 0.0
2014-Nov-05 23:33N 51°49' E 004°52'0 0.0
2014-Nov-05 22:32N 51°49' E 004°52'0 0.0
2014-Nov-05 21:32N 51°49' E 004°52'0 0.0
2014-Nov-05 20:32N 51°49' E 004°52'0 0.0
2014-Nov-05 19:31N 51°49' E 004°52'0 0.0
2014-Nov-05 18:28N 51°49' E 004°52'0 0.0
2014-Nov-05 17:30N 51°49' E 004°52'0 0.0
2014-Nov-05 16:33N 51°49' E 004°52'0 0.0
2014-Nov-05 15:32N 51°49' E 004°52'0 0.0
2014-Nov-05 14:32N 51°49' E 004°52'0 0.0
2014-Nov-05 13:28N 51°49' E 004°52'0 0.0
2014-Nov-05 12:31N 51°49' E 004°52'0 0.0
2014-Nov-05 11:31N 51°49' E 004°52'0 0.0
2014-Nov-05 10:33N 51°49' E 004°52'0 0.0
2014-Nov-05 09:33N 51°49' E 004°52'0 0.0
2014-Nov-05 08:32N 51°49' E 004°52'0 0.0
2014-Nov-05 07:29N 51°49' E 004°52'0 0.0
2014-Nov-05 06:31N 51°49' E 004°52'0 0.0
2014-Nov-05 05:31N 51°49' E 004°52'0 0.0
2014-Nov-05 04:31N 51°49' E 004°52'  
Track history (hours):
 
Tides and Currents Weather Stations Pressure Air Temp Water Temp Dewpoint Dewpoint Depression Visibility Wind Speed Wind Dir Waves Ship Positions

Filia Ariea

Last reported at 2014-Nov-15 04:29 UTC. Time now 2014-Nov-23 12:21 UTC.
Position N 50°11' W 003°38'.
Warning: this ship's position is 8 days out of date.

Length 90 m; draft 4.4 m.

Type: Ship. MMSI: 244662000.

Date/timePositionNaut miles runAvg speedWind from/ knotsBaromVisibWave heightAir tempDewpointWater temp
2014-Nov-15 04:29N 50°11' W 003°38'9 9.4
2014-Nov-15 03:33N 50°12' W 003°25'9 9.0
2014-Nov-15 02:33N 50°13' W 003°11'8 8.4
2014-Nov-15 01:33N 50°14' W 002°58'8 7.8
2014-Nov-15 00:33N 50°15' W 002°46'115 9.5
2014-Nov-14 12:26N 50°34' E 000°12'7 8.1
2014-Nov-14 11:33N 50°37' E 000°23'9 8.7
2014-Nov-14 10:33N 50°40' E 000°36'10 9.5
2014-Nov-14 09:33N 50°45' E 000°48'9 9.1
2014-Nov-14 08:33N 50°50' E 001°00'9 8.6
2014-Nov-14 07:33N 50°56' E 001°10'9 8.6
2014-Nov-14 06:33N 51°01' E 001°21'9 8.6
2014-Nov-14 05:33N 51°07' E 001°31'8 8.3
2014-Nov-14 04:33N 51°12' E 001°41'9 8.8
2014-Nov-14 03:34N 51°19' E 001°50'10 9.7
2014-Nov-14 02:33N 51°27' E 002°00'1210.6
2014-Nov-14 01:25N 51°35' E 002°13'3110.7
2014-Nov-13 22:32N 51°58' E 002°47'1010.0
2014-Nov-13 21:33N 52°03' E 003°00'29 9.7
2014-Nov-13 18:33N 52°18' E 003°42'10 9.8
2014-Nov-13 17:33N 52°20' E 003°58'1010.2
2014-Nov-13 16:33N 52°23' E 004°13'1111.0
2014-Nov-13 15:33N 52°29' E 004°29'5 4.4
2014-Nov-13 14:31N 52°28' E 004°36'0 0.0
2014-Nov-13 13:33N 52°28' E 004°36'0 0.0
2014-Nov-13 12:33N 52°28' E 004°36'0 0.0
2014-Nov-13 11:33N 52°28' E 004°36'0 0.0
2014-Nov-13 10:32N 52°28' E 004°36'0 0.0
2014-Nov-13 09:26N 52°28' E 004°36'0 0.0
2014-Nov-13 08:31N 52°28' E 004°36'0 0.0
2014-Nov-13 07:31N 52°28' E 004°36'0 0.0
2014-Nov-13 06:31N 52°28' E 004°36'0 0.0
2014-Nov-13 05:31N 52°28' E 004°36'0 0.0
2014-Nov-13 04:33N 52°28' E 004°36'0 0.0
2014-Nov-13 03:33N 52°28' E 004°36'0 0.0
2014-Nov-13 02:32N 52°28' E 004°36'0 0.0
2014-Nov-13 01:32N 52°28' E 004°36'0 0.0
2014-Nov-13 00:32N 52°28' E 004°36'0 0.0
2014-Nov-12 23:31N 52°28' E 004°36'0 0.0
2014-Nov-12 22:30N 52°28' E 004°36'0 0.0
2014-Nov-12 21:33N 52°28' E 004°36'0 0.0
2014-Nov-12 20:33N 52°28' E 004°36'0 0.0
2014-Nov-12 19:33N 52°28' E 004°36'0 0.0
2014-Nov-12 18:32N 52°28' E 004°36'0 0.0
2014-Nov-12 17:32N 52°28' E 004°36'0 0.0
2014-Nov-12 16:31N 52°28' E 004°36'0 0.0
2014-Nov-12 15:31N 52°28' E 004°36'1 0.7
2014-Nov-12 14:34N 52°28' E 004°35'1110.6
2014-Nov-12 13:34N 52°29' E 004°18'1110.5
2014-Nov-12 12:33N 52°28' E 004°01'1010.2
2014-Nov-12 11:33N 52°27' E 003°44'5210.3
2014-Nov-12 06:33N 52°34' E 002°20'10 9.8
2014-Nov-12 05:34N 52°35' E 002°04'8 8.3
2014-Nov-12 04:33N 52°38' E 001°51'8 7.8
2014-Nov-12 03:34N 52°45' E 001°45'9 8.8
2014-Nov-12 02:34N 52°51' E 001°35'9 9.5
2014-Nov-12 01:34N 52°57' E 001°22'  
2014-Nov-08 11:33N 53°05' E 001°16'1010.4
2014-Nov-08 10:33N 53°03' E 001°33'11 9.6
2014-Nov-08 09:27N 53°01' E 001°50'71 8.8
2014-Nov-08 01:25N 52°38' E 003°41'7 8.1
2014-Nov-08 00:33N 52°35' E 003°51'8 8.1
2014-Nov-07 23:33N 52°32' E 004°04'8 8.0
2014-Nov-07 22:33N 52°30' E 004°16'8 8.2
2014-Nov-07 21:33N 52°28' E 004°30'5 4.6
2014-Nov-07 20:33N 52°28' E 004°37'9 9.4
2014-Nov-07 19:33N 52°25' E 004°52'1 0.8
2014-Nov-07 18:33N 52°24' E 004°52'0 0.0
2014-Nov-07 17:33N 52°24' E 004°52'0 0.0
2014-Nov-07 16:32N 52°24' E 004°52'0 0.0
2014-Nov-07 15:32N 52°24' E 004°52'0 0.0
2014-Nov-07 14:31N 52°24' E 004°52'0 0.0
2014-Nov-07 13:31N 52°24' E 004°52'0 0.0
2014-Nov-07 12:34N 52°24' E 004°52'0 0.0
2014-Nov-07 11:33N 52°24' E 004°52'0 0.0
2014-Nov-07 10:33N 52°24' E 004°52'1 0.5
2014-Nov-07 09:31N 52°24' E 004°52'0 0.0
2014-Nov-07 08:31N 52°24' E 004°52'0 0.0
2014-Nov-07 07:33N 52°24' E 004°52'0 0.0
2014-Nov-07 06:33N 52°24' E 004°52'0 0.0
2014-Nov-07 05:32N 52°24' E 004°52'0 0.0
2014-Nov-07 04:32N 52°24' E 004°52'0 0.0
2014-Nov-07 03:32N 52°24' E 004°52'0 0.0
2014-Nov-07 02:31N 52°24' E 004°52'0 0.0
2014-Nov-07 01:31N 52°24' E 004°52'0 0.0
2014-Nov-07 00:33N 52°24' E 004°52'0 0.0
2014-Nov-06 23:33N 52°24' E 004°52'0 0.0
2014-Nov-06 22:32N 52°24' E 004°52'0 0.0
2014-Nov-06 21:32N 52°24' E 004°52'0 0.0
2014-Nov-06 20:32N 52°24' E 004°52'0 0.0
2014-Nov-06 19:33N 52°24' E 004°52'8 7.6
2014-Nov-06 18:33N 52°27' E 004°41'3 3.2
2014-Nov-06 17:33N 52°28' E 004°36'9 9.0
2014-Nov-06 16:33N 52°22' E 004°25'1313.2
2014-Nov-06 15:34N 52°10' E 004°15'1312.9
2014-Nov-06 14:34N 51°60' E 004°03'1110.5
2014-Nov-06 13:33N 51°54' E 004°17'8 8.1
2014-Nov-06 12:33N 51°50' E 004°28'6 6.3
2014-Nov-06 11:33N 51°48' E 004°38'0 0.0
2014-Nov-06 10:33N 51°48' E 004°38'3 3.4
2014-Nov-06 09:34N 51°49' E 004°43'4 3.7
2014-Nov-06 08:33N 51°49' E 004°49'2 1.8
2014-Nov-06 07:33N 51°49' E 004°52'0 0.0
2014-Nov-06 06:30N 51°49' E 004°52'0 0.0
2014-Nov-06 05:32N 51°49' E 004°52'0 0.0
2014-Nov-06 04:32N 51°49' E 004°52'0 0.0
2014-Nov-06 03:31N 51°49' E 004°52'0 0.0
2014-Nov-06 02:31N 51°49' E 004°52'0 0.0
2014-Nov-06 01:28N 51°49' E 004°52'0 0.0
2014-Nov-06 00:33N 51°49' E 004°52'0 0.0
2014-Nov-05 23:33N 51°49' E 004°52'0 0.0
2014-Nov-05 22:32N 51°49' E 004°52'0 0.0
2014-Nov-05 21:32N 51°49' E 004°52'0 0.0
2014-Nov-05 20:32N 51°49' E 004°52'0 0.0
2014-Nov-05 19:31N 51°49' E 004°52'0 0.0
2014-Nov-05 18:28N 51°49' E 004°52'0 0.0
2014-Nov-05 17:30N 51°49' E 004°52'0 0.0
2014-Nov-05 16:33N 51°49' E 004°52'0 0.0
2014-Nov-05 15:32N 51°49' E 004°52'0 0.0
2014-Nov-05 14:32N 51°49' E 004°52'0 0.0
2014-Nov-05 13:28N 51°49' E 004°52'0 0.0
2014-Nov-05 12:31N 51°49' E 004°52'0 0.0
2014-Nov-05 11:31N 51°49' E 004°52'0 0.0
2014-Nov-05 10:33N 51°49' E 004°52'0 0.0
2014-Nov-05 09:33N 51°49' E 004°52'0 0.0
2014-Nov-05 08:32N 51°49' E 004°52'0 0.0
2014-Nov-05 07:29N 51°49' E 004°52'0 0.0
2014-Nov-05 06:31N 51°49' E 004°52'0 0.0
2014-Nov-05 05:31N 51°49' E 004°52'0 0.0
2014-Nov-05 04:31N 51°49' E 004°52'  

Dump ship's entire track history